createdAt,value
2018-11-21T00:02:04.597Z,43.85
2018-11-21T00:04:53.783Z,42.48
2018-11-21T00:07:42.380Z,53.40
2018-11-21T00:10:31.345Z,46.02
2018-11-21T00:13:20.160Z,42.40
2018-11-21T00:16:09.172Z,48.13
2018-11-21T00:19:00.738Z,43.83
2018-11-21T00:21:46.728Z,46.75
2018-11-21T00:24:35.520Z,42.55
2018-11-21T00:27:24.076Z,38.40
2018-11-21T00:30:14.606Z,40.35
2018-11-21T00:33:03.733Z,43.55
2018-11-21T00:35:52.493Z,47.60
2018-11-21T00:38:41.396Z,45.45
2018-11-21T00:41:30.682Z,48.52
2018-11-21T00:44:19.352Z,46.25
2018-11-21T00:47:08.008Z,47.88
2018-11-21T00:49:56.581Z,49.75
2018-11-21T00:52:45.551Z,46.25
2018-11-21T00:55:34.354Z,42.05
2018-11-21T00:58:23.297Z,52.75
2018-11-21T01:01:11.965Z,49.20
2018-11-21T01:04:00.515Z,59.83
2018-11-21T01:06:49.436Z,46.83
2018-11-21T01:09:37.989Z,48.83
2018-11-21T01:12:26.631Z,47.78
2018-11-21T01:15:15.283Z,44.42
2018-11-21T01:18:04.259Z,47.67
2018-11-21T01:20:52.978Z,40.40
2018-11-21T01:23:41.701Z,46.80
2018-11-21T01:26:30.362Z,46.58
2018-11-21T01:29:19.210Z,41.85
2018-11-21T01:32:07.981Z,46.85
2018-11-21T01:34:56.822Z,44.80
2018-11-21T01:37:45.814Z,51.40
2018-11-21T01:40:34.595Z,53.02
2018-11-21T01:43:23.367Z,47.25
2018-11-21T01:46:12.070Z,51.20
2018-11-21T01:49:00.980Z,43.48
2018-11-21T01:51:49.803Z,45.28
2018-11-21T01:54:38.668Z,45.20
2018-11-21T01:57:27.365Z,52.30
2018-11-21T02:00:16.264Z,46.60
2018-11-21T02:03:05.121Z,46.83
2018-11-21T02:05:53.944Z,39.50
2018-11-21T02:08:43.035Z,44.03
2018-11-21T02:11:31.945Z,42.58
2018-11-21T02:14:21.235Z,41.92
2018-11-21T02:17:10.196Z,51.00
2018-11-21T02:19:58.305Z,42.88
2018-11-21T02:22:47.207Z,36.65
2018-11-21T02:25:35.876Z,41.05
2018-11-21T02:28:24.839Z,41.58
2018-11-21T02:31:13.925Z,37.45
2018-11-21T02:34:02.697Z,39.67
2018-11-21T02:36:51.953Z,37.08
2018-11-21T02:39:40.536Z,43.45
2018-11-21T02:42:29.197Z,35.83
2018-11-21T02:45:17.972Z,42.53
2018-11-21T02:48:07.171Z,43.65
2018-11-21T02:50:56.143Z,42.10
2018-11-21T02:53:45.282Z,38.83
2018-11-21T02:56:53.588Z,38.17
2018-11-21T02:59:45.467Z,44.18
2018-11-21T03:02:34.375Z,36.68
2018-11-21T03:05:23.248Z,39.60
2018-11-21T03:08:12.254Z,43.30
2018-11-21T03:11:01.035Z,44.95
2018-11-21T03:13:49.820Z,36.83
2018-11-21T03:16:38.677Z,45.45
2018-11-21T03:19:27.467Z,36.17
2018-11-21T03:22:16.162Z,41.18
2018-11-21T03:25:04.875Z,43.13
2018-11-21T03:27:53.605Z,42.70
2018-11-21T03:30:42.425Z,37.05
2018-11-21T03:33:30.408Z,45.88
2018-11-21T03:36:21.484Z,42.43
2018-11-21T03:39:11.189Z,39.18
2018-11-21T03:42:01.931Z,50.33
2018-11-21T03:44:50.467Z,37.67
2018-11-21T03:47:39.074Z,35.92
2018-11-21T03:50:27.911Z,32.50
2018-11-21T03:53:16.715Z,37.08
2018-11-21T03:56:05.612Z,40.08
2018-11-21T03:58:54.494Z,51.90
2018-11-21T04:01:42.888Z,51.58
2018-11-21T04:04:31.961Z,38.15
2018-11-21T04:07:20.727Z,32.70
2018-11-21T04:10:10.577Z,35.03
2018-11-21T04:12:59.487Z,37.28
2018-11-21T04:15:48.412Z,30.20
2018-11-21T04:18:37.053Z,37.98
2018-11-21T04:21:25.731Z,29.95
2018-11-21T04:24:14.739Z,34.90
2018-11-21T04:27:03.789Z,35.88
2018-11-21T04:29:52.369Z,36.90
2018-11-21T04:32:41.382Z,40.50
2018-11-21T04:35:30.313Z,40.92
2018-11-21T04:38:21.377Z,31.30
2018-11-21T04:41:08.388Z,42.65
2018-11-21T04:44:00.030Z,48.73
2018-11-21T04:46:49.067Z,46.77
2018-11-21T04:49:37.830Z,52.27
2018-11-21T04:52:26.358Z,60.03
2018-11-21T04:55:15.158Z,54.75
2018-11-21T04:58:04.210Z,51.63
2018-11-21T05:00:55.614Z,60.12
2018-11-21T05:03:44.401Z,165.75
2018-11-21T05:06:33.286Z,95.65
2018-11-21T05:09:22.227Z,115.28
2018-11-21T05:12:11.523Z,94.60
2018-11-21T05:15:00.544Z,156.75
2018-11-21T05:17:49.425Z,67.62
2018-11-21T05:20:38.609Z,121.75
2018-11-21T05:23:19.901Z,80.83
2018-11-21T05:26:01.748Z,58.45
2018-11-21T05:28:43.372Z,66.82
2018-11-21T05:31:24.860Z,112.90
2018-11-21T05:34:05.786Z,80.03
2018-11-21T05:36:47.489Z,61.60
2018-11-21T05:39:28.610Z,72.40
2018-11-21T05:42:10.223Z,63.65
2018-11-21T05:44:51.054Z,70.78
2018-11-21T05:47:32.586Z,80.60
2018-11-21T05:50:14.793Z,104.40
2018-11-21T05:52:56.325Z,86.00
2018-11-21T05:55:37.688Z,81.57
2018-11-21T05:58:18.513Z,63.10
2018-11-21T06:04:11.373Z,64.62
2018-11-21T06:06:52.480Z,50.12
2018-11-21T06:09:33.877Z,41.05
2018-11-21T06:12:15.003Z,42.80
2018-11-21T06:14:56.328Z,50.40
2018-11-21T06:17:37.798Z,47.27
2018-11-21T06:23:31.727Z,38.85
2018-11-21T06:26:12.783Z,42.25
2018-11-21T06:28:54.344Z,39.27
2018-11-21T06:34:47.888Z,40.03
2018-11-21T06:37:29.340Z,56.40
2018-11-21T06:40:11.136Z,42.23
2018-11-21T06:42:54.586Z,38.83
2018-11-21T06:45:35.555Z,33.05
2018-11-21T06:51:14.585Z,31.87
2018-11-21T06:57:03.996Z,32.15
2018-11-21T06:59:44.973Z,34.18
2018-11-21T07:02:26.011Z,33.33
2018-11-21T07:08:06.002Z,32.05
2018-11-21T07:10:46.685Z,32.35
2018-11-21T07:19:31.015Z,32.28
2018-11-21T07:22:12.509Z,33.95
2018-11-21T07:24:53.849Z,37.95
2018-11-21T07:33:46.637Z,34.25
2018-11-21T07:36:26.018Z,32.10
2018-11-21T07:39:06.575Z,37.28
2018-11-21T07:41:48.175Z,31.57
2018-11-21T07:44:29.198Z,40.05
2018-11-21T07:47:10.156Z,35.38
2018-11-21T07:52:49.363Z,29.45
2018-11-21T07:58:28.477Z,36.75
2018-11-21T08:10:38.227Z,45.63
2018-11-21T08:13:41.516Z,47.25
2018-11-21T08:16:41.169Z,36.63
2018-11-21T08:19:37.089Z,35.85
2018-11-21T08:22:37.203Z,38.75
2018-11-21T08:25:37.399Z,53.50
2018-11-21T08:28:36.836Z,41.75
2018-11-21T08:31:18.226Z,41.92
2018-11-21T08:33:59.650Z,38.73
2018-11-21T08:36:41.152Z,34.15
2018-11-21T08:39:22.105Z,41.90
2018-11-21T08:42:03.450Z,42.48
2018-11-21T08:44:44.153Z,39.98
2018-11-21T08:47:25.762Z,37.17
2018-11-21T08:50:06.707Z,39.55
2018-11-21T08:52:48.555Z,35.13
2018-11-21T08:55:29.912Z,41.58
2018-11-21T08:58:11.159Z,34.88
2018-11-21T09:00:52.639Z,38.67
2018-11-21T09:03:33.745Z,40.03
2018-11-21T09:06:15.025Z,39.70
2018-11-21T09:08:56.665Z,36.03
2018-11-21T09:11:37.713Z,40.52
2018-11-21T09:14:18.824Z,39.38
2018-11-21T09:17:00.124Z,34.98
2018-11-21T09:19:41.471Z,33.18
2018-11-21T09:22:22.502Z,33.67
2018-11-21T09:25:03.754Z,47.27
2018-11-21T09:27:44.944Z,35.13
2018-11-21T09:30:26.462Z,38.25
2018-11-21T09:33:07.522Z,36.35
2018-11-21T09:35:48.179Z,45.67
2018-11-21T09:38:29.578Z,32.55
2018-11-21T09:41:10.771Z,36.55
2018-11-21T09:43:52.070Z,37.95
2018-11-21T09:46:32.958Z,37.67
2018-11-21T09:51:57.376Z,38.33
2018-11-21T09:54:38.568Z,37.03
2018-11-21T09:57:53.620Z,37.20
2018-11-21T10:00:34.709Z,36.00
2018-11-21T10:03:19.287Z,39.53
2018-11-21T10:06:00.481Z,38.85
2018-11-21T10:08:46.068Z,34.58
2018-11-21T10:11:27.992Z,37.13
2018-11-21T10:14:08.817Z,39.40
2018-11-21T10:16:50.216Z,36.73
2018-11-21T10:19:31.832Z,32.28
2018-11-21T10:25:12.104Z,38.35
2018-11-21T10:27:52.994Z,33.63
2018-11-21T10:33:46.777Z,38.80
2018-11-21T10:39:10.702Z,39.63
2018-11-21T10:41:52.530Z,37.40
2018-11-21T10:47:32.513Z,36.75
2018-11-21T10:53:26.047Z,37.17
2018-11-21T10:56:07.198Z,39.15
2018-11-21T10:58:49.078Z,36.08
2018-11-21T11:01:49.465Z,33.98
2018-11-21T11:04:55.203Z,47.93
2018-11-21T11:07:55.373Z,36.98
2018-11-21T11:10:52.721Z,37.98
2018-11-21T11:25:51.663Z,42.85
2018-11-21T11:28:54.911Z,41.75
2018-11-21T11:35:07.668Z,46.85
2018-11-21T11:41:10.348Z,35.28
2018-11-21T11:44:10.753Z,86.45
2018-11-21T11:47:10.349Z,46.92
2018-11-21T11:50:06.039Z,45.33
2018-11-21T11:56:14.134Z,39.98
2018-11-21T11:59:16.956Z,39.92
2018-11-21T12:02:19.857Z,41.20
2018-11-21T12:05:20.176Z,45.00
2018-11-21T12:08:20.202Z,46.37
2018-11-21T12:11:22.308Z,42.15
2018-11-21T12:14:20.485Z,42.35
2018-11-21T12:20:09.605Z,46.95
2018-11-21T12:23:09.969Z,51.53
2018-11-21T12:26:10.628Z,52.27
2018-11-21T12:38:23.008Z,48.80
2018-11-21T12:41:23.343Z,50.78
2018-11-21T12:44:25.998Z,52.15
2018-11-21T12:47:27.479Z,40.17
2018-11-21T12:50:27.300Z,44.10
2018-11-21T12:53:33.626Z,41.55
2018-11-21T12:56:33.872Z,42.43
2018-11-21T12:59:33.345Z,43.15
2018-11-21T13:02:32.940Z,56.73
2018-11-21T13:05:33.219Z,45.20
2018-11-21T13:11:31.645Z,43.45
2018-11-21T13:14:31.718Z,44.58
2018-11-21T13:17:34.447Z,47.95
2018-11-21T13:20:37.573Z,46.28
2018-11-21T13:23:37.263Z,45.03
2018-11-21T13:26:38.635Z,47.13
2018-11-21T13:29:44.344Z,45.00
2018-11-21T13:32:43.979Z,55.63
2018-11-21T13:45:04.999Z,44.88
2018-11-21T13:48:05.241Z,43.92
2018-11-21T13:51:05.082Z,46.63
2018-11-21T13:53:55.298Z,48.28
2018-11-21T13:56:36.388Z,45.73
2018-11-21T13:59:18.269Z,49.67
2018-11-21T14:01:59.616Z,49.08
2018-11-21T14:04:40.518Z,52.35
2018-11-21T14:07:21.692Z,50.38
2018-11-21T14:10:03.395Z,50.90
2018-11-21T14:12:44.947Z,47.55
2018-11-21T14:15:26.228Z,47.65
2018-11-21T14:18:06.988Z,48.78
2018-11-21T14:20:48.277Z,55.35
2018-11-21T14:23:32.717Z,47.85
2018-11-21T14:26:13.988Z,50.28
2018-11-21T14:28:55.106Z,54.70
2018-11-21T14:31:36.093Z,49.18
2018-11-21T14:34:17.676Z,50.70
2018-11-21T14:36:59.065Z,52.27
2018-11-21T14:39:40.174Z,55.12
2018-11-21T14:45:19.593Z,53.05
2018-11-21T14:48:00.770Z,56.08
2018-11-21T14:50:41.989Z,57.95
2018-11-21T14:59:24.277Z,47.27
2018-11-21T15:02:06.026Z,57.35
2018-11-21T15:07:49.031Z,67.45
2018-11-21T15:10:29.728Z,51.98
2018-11-21T15:13:11.289Z,50.73
2018-11-21T15:19:05.216Z,51.95
2018-11-21T15:21:46.122Z,48.00
2018-11-21T15:24:27.635Z,51.33
2018-11-21T15:27:09.404Z,48.42
2018-11-21T15:32:51.656Z,53.68
2018-11-21T15:35:33.409Z,55.67
2018-11-21T15:38:14.837Z,46.77
2018-11-21T15:44:08.391Z,60.50
2018-11-21T15:46:49.940Z,81.75
2018-11-21T15:49:31.234Z,63.58
2018-11-21T15:52:12.303Z,126.07
2018-11-21T15:54:51.214Z,82.37
2018-11-21T16:00:44.784Z,62.10
2018-11-21T16:03:26.000Z,69.07
2018-11-21T16:09:20.115Z,55.63
2018-11-21T16:12:01.780Z,53.50
2018-11-21T16:14:42.625Z,54.60
2018-11-21T16:17:23.497Z,48.25
2018-11-21T16:29:00.470Z,56.70
2018-11-21T16:31:41.942Z,52.78
2018-11-21T16:34:23.023Z,57.15
2018-11-21T16:37:04.450Z,58.38
2018-11-21T16:42:32.134Z,45.95
2018-11-21T16:48:12.400Z,48.73
2018-11-21T16:50:53.887Z,55.78
2018-11-21T16:56:33.787Z,50.28
2018-11-21T16:59:15.229Z,48.80
2018-11-21T17:05:09.034Z,65.35
2018-11-21T17:07:50.885Z,60.25
2018-11-21T17:10:32.608Z,51.83
2018-11-21T17:16:26.343Z,49.13
2018-11-21T17:19:08.109Z,57.73
2018-11-21T17:21:49.078Z,57.45
2018-11-21T17:24:33.227Z,53.80
2018-11-21T17:27:14.803Z,56.90
2018-11-21T17:32:55.099Z,66.72
2018-11-21T17:35:36.766Z,78.50
2018-11-21T17:41:30.545Z,64.50
2018-11-21T17:44:12.279Z,62.15
2018-11-21T17:46:53.173Z,63.60
2018-11-21T17:49:34.897Z,71.53
2018-11-21T17:55:22.038Z,64.00
2018-11-21T17:58:04.757Z,61.10
2018-11-21T18:00:47.093Z,52.67
2018-11-21T18:06:40.557Z,62.25
2018-11-21T18:09:21.755Z,65.62
2018-11-21T18:12:03.257Z,70.80
2018-11-21T18:14:45.054Z,49.48
2018-11-21T18:20:24.800Z,55.43
2018-11-21T18:26:05.596Z,72.40
2018-11-21T18:28:46.596Z,80.00
2018-11-21T18:31:28.118Z,65.50
2018-11-21T18:34:09.844Z,65.78
2018-11-21T18:36:50.926Z,65.70
2018-11-21T18:39:32.100Z,60.67
2018-11-21T18:42:14.659Z,48.55
2018-11-21T18:44:56.187Z,57.38
2018-11-21T18:47:37.249Z,63.80
2018-11-21T18:50:19.253Z,68.25
2018-11-21T18:53:01.751Z,57.83
2018-11-21T18:55:43.204Z,55.60
2018-11-21T19:01:28.178Z,54.23
2018-11-21T19:04:09.831Z,51.02
2018-11-21T19:06:51.575Z,52.33
2018-11-21T19:09:32.409Z,63.95
2018-11-21T19:15:16.919Z,51.40
2018-11-21T19:17:58.711Z,65.90
2018-11-21T19:20:39.853Z,56.55
2018-11-21T19:23:24.492Z,60.63
2018-11-21T19:26:06.388Z,64.97
2018-11-21T19:28:48.042Z,80.35
2018-11-21T19:31:29.839Z,59.90
2018-11-21T19:34:11.006Z,66.20
2018-11-21T19:36:52.395Z,55.03
2018-11-21T19:39:33.335Z,74.92
2018-11-21T19:42:15.251Z,58.28
2018-11-21T19:44:56.509Z,57.58
2018-11-21T19:50:20.278Z,76.80
2018-11-21T19:53:01.632Z,65.47
2018-11-21T19:55:44.012Z,80.15
2018-11-21T20:01:24.247Z,67.53
2018-11-21T20:04:06.261Z,77.65
2018-11-21T20:06:47.367Z,72.70
2018-11-21T20:09:29.394Z,72.58
2018-11-21T20:12:11.212Z,68.50
2018-11-21T20:14:52.475Z,72.75
2018-11-21T20:17:33.890Z,71.92
2018-11-21T20:20:16.208Z,64.82
2018-11-21T20:22:57.236Z,73.20
2018-11-21T20:25:39.304Z,65.28
2018-11-21T20:31:10.588Z,74.53
2018-11-21T20:33:52.211Z,53.90
2018-11-21T20:36:33.610Z,66.00
2018-11-21T20:39:15.258Z,77.55
2018-11-21T20:41:56.622Z,57.23
2018-11-21T20:47:41.658Z,59.75
2018-11-21T20:50:23.003Z,65.22
2018-11-21T20:53:05.430Z,64.50
2018-11-21T20:55:46.667Z,58.13
2018-11-21T20:58:27.934Z,56.00
2018-11-21T21:01:11.688Z,48.68
2018-11-21T21:03:52.838Z,55.78
2018-11-21T21:06:34.765Z,64.42
2018-11-21T21:09:19.104Z,66.65
2018-11-21T21:12:01.629Z,60.33
2018-11-21T21:14:42.561Z,58.23
2018-11-21T21:17:24.114Z,50.70
2018-11-21T21:20:05.802Z,56.95
2018-11-21T21:25:30.514Z,48.58
2018-11-21T21:31:24.781Z,51.25
2018-11-21T21:34:06.052Z,54.23
2018-11-21T21:36:47.771Z,54.13
2018-11-21T21:39:29.342Z,46.63
2018-11-21T21:45:13.633Z,46.33
2018-11-21T21:47:55.344Z,49.08
2018-11-21T21:50:37.019Z,53.15
2018-11-21T21:53:18.555Z,57.20
2018-11-21T21:55:59.521Z,46.37
2018-11-21T21:58:41.224Z,53.45
2018-11-21T22:10:18.991Z,48.98
2018-11-21T22:13:00.361Z,55.65
2018-11-21T22:15:41.053Z,42.08
2018-11-21T22:18:22.057Z,47.65
2018-11-21T22:24:01.890Z,54.20
2018-11-21T22:26:43.357Z,57.45
2018-11-21T22:29:24.024Z,55.58
2018-11-21T22:32:05.889Z,53.13
2018-11-21T22:34:47.137Z,44.48
2018-11-21T22:40:26.644Z,45.20
2018-11-21T22:43:08.115Z,52.88
2018-11-21T22:45:49.296Z,48.55
2018-11-21T22:48:30.580Z,45.00
2018-11-21T22:51:12.088Z,56.45
2018-11-21T22:53:53.219Z,51.95
2018-11-21T22:56:34.811Z,51.75
2018-11-21T22:59:16.174Z,50.78
2018-11-21T23:01:57.258Z,50.65
2018-11-21T23:04:38.231Z,54.95
2018-11-21T23:07:19.727Z,49.55
2018-11-21T23:10:01.131Z,55.50
2018-11-21T23:12:42.058Z,53.70
2018-11-21T23:15:23.328Z,48.75
2018-11-21T23:18:04.382Z,48.70
2018-11-21T23:20:46.034Z,49.90
2018-11-21T23:23:27.484Z,52.20
2018-11-21T23:26:08.567Z,46.42
2018-11-21T23:31:51.692Z,46.85
2018-11-21T23:34:31.575Z,43.05
2018-11-21T23:37:20.503Z,51.92
2018-11-21T23:40:10.110Z,51.00
2018-11-21T23:42:58.994Z,45.08
2018-11-21T23:45:47.452Z,43.60
2018-11-21T23:48:36.412Z,51.05
2018-11-21T23:54:34.494Z,50.58
2018-11-21T23:57:24.919Z,55.65
